sensor_id;sensor_type;location;lat;lon;timestamp;temperature;humidity
33715;DHT22;20043;50.998;4.754;2023-02-28T00:00:51;2.10;99.90
33715;DHT22;20043;50.998;4.754;2023-02-28T00:03:17;2.20;99.90
33715;DHT22;20043;50.998;4.754;2023-02-28T00:05:42;2.10;99.90
33715;DHT22;20043;50.998;4.754;2023-02-28T00:08:08;2.20;99.90
33715;DHT22;20043;50.998;4.754;2023-02-28T00:10:34;2.20;99.90
33715;DHT22;20043;50.998;4.754;2023-02-28T00:13:02;2.20;99.90
33715;DHT22;20043;50.998;4.754;2023-02-28T00:15:28;2.20;99.90
33715;DHT22;20043;50.998;4.754;2023-02-28T00:17:54;2.10;99.90
33715;DHT22;20043;50.998;4.754;2023-02-28T00:20:20;2.00;99.90
33715;DHT22;20043;50.998;4.754;2023-02-28T00:22:48;1.90;99.90
33715;DHT22;20043;50.998;4.754;2023-02-28T00:25:16;2.00;99.90
33715;DHT22;20043;50.998;4.754;2023-02-28T00:27:42;2.00;99.90
33715;DHT22;20043;50.998;4.754;2023-02-28T00:30:11;2.00;99.90
33715;DHT22;20043;50.998;4.754;2023-02-28T00:32:37;1.80;99.90
33715;DHT22;20043;50.998;4.754;2023-02-28T00:35:04;1.80;99.90
33715;DHT22;20043;50.998;4.754;2023-02-28T00:37:29;2.00;99.90
33715;DHT22;20043;50.998;4.754;2023-02-28T00:39:55;1.90;99.90
33715;DHT22;20043;50.998;4.754;2023-02-28T00:42:21;1.90;99.90
33715;DHT22;20043;50.998;4.754;2023-02-28T00:44:47;1.90;99.90
33715;DHT22;20043;50.998;4.754;2023-02-28T00:47:13;1.90;99.90
33715;DHT22;20043;50.998;4.754;2023-02-28T00:49:38;1.70;99.90
33715;DHT22;20043;50.998;4.754;2023-02-28T00:52:04;1.70;99.90
33715;DHT22;20043;50.998;4.754;2023-02-28T00:54:29;1.80;99.90
33715;DHT22;20043;50.998;4.754;2023-02-28T00:56:55;1.70;99.90
33715;DHT22;20043;50.998;4.754;2023-02-28T00:59:21;1.60;99.90
33715;DHT22;20043;50.998;4.754;2023-02-28T01:01:47;1.70;99.90
33715;DHT22;20043;50.998;4.754;2023-02-28T01:04:14;1.50;99.90
33715;DHT22;20043;50.998;4.754;2023-02-28T01:06:39;1.60;99.90
33715;DHT22;20043;50.998;4.754;2023-02-28T01:09:06;1.50;99.90
33715;DHT22;20043;50.998;4.754;2023-02-28T01:11:33;1.30;99.90
33715;DHT22;20043;50.998;4.754;2023-02-28T01:13:59;1.40;99.90
33715;DHT22;20043;50.998;4.754;2023-02-28T01:16:25;1.30;99.90
33715;DHT22;20043;50.998;4.754;2023-02-28T01:18:51;1.10;99.90
33715;DHT22;20043;50.998;4.754;2023-02-28T01:21:18;1.00;99.90
33715;DHT22;20043;50.998;4.754;2023-02-28T01:23:44;1.00;99.90
33715;DHT22;20043;50.998;4.754;2023-02-28T01:26:13;1.10;99.90
33715;DHT22;20043;50.998;4.754;2023-02-28T01:28:39;1.00;99.90
33715;DHT22;20043;50.998;4.754;2023-02-28T01:31:05;1.00;99.90
33715;DHT22;20043;50.998;4.754;2023-02-28T01:33:32;1.10;99.90
33715;DHT22;20043;50.998;4.754;2023-02-28T01:36:05;1.20;99.90
33715;DHT22;20043;50.998;4.754;2023-02-28T01:38:31;1.20;99.90
33715;DHT22;20043;50.998;4.754;2023-02-28T01:40:57;1.30;99.90
33715;DHT22;20043;50.998;4.754;2023-02-28T01:45:55;1.20;99.90
33715;DHT22;20043;50.998;4.754;2023-02-28T01:48:27;1.20;99.90
33715;DHT22;20043;50.998;4.754;2023-02-28T01:50:57;1.00;99.90
33715;DHT22;20043;50.998;4.754;2023-02-28T01:53:37;1.00;99.90
33715;DHT22;20043;50.998;4.754;2023-02-28T01:56:06;1.10;99.90
33715;DHT22;20043;50.998;4.754;2023-02-28T01:58:32;1.20;99.90
33715;DHT22;20043;50.998;4.754;2023-02-28T02:00:58;1.20;99.90
33715;DHT22;20043;50.998;4.754;2023-02-28T02:03:24;1.10;99.90
33715;DHT22;20043;50.998;4.754;2023-02-28T02:05:50;1.00;99.90
33715;DHT22;20043;50.998;4.754;2023-02-28T02:08:24;1.10;99.90
33715;DHT22;20043;50.998;4.754;2023-02-28T02:10:57;1.00;99.90
33715;DHT22;20043;50.998;4.754;2023-02-28T02:13:38;1.00;99.90
33715;DHT22;20043;50.998;4.754;2023-02-28T02:38:45;0.80;99.90
33715;DHT22;20043;50.998;4.754;2023-02-28T02:41:36;0.70;99.90
33715;DHT22;20043;50.998;4.754;2023-02-28T02:44:15;0.60;99.90
33715;DHT22;20043;50.998;4.754;2023-02-28T02:46:45;0.60;99.90
33715;DHT22;20043;50.998;4.754;2023-02-28T02:49:28;0.70;99.90
33715;DHT22;20043;50.998;4.754;2023-02-28T02:51:56;0.60;99.90
33715;DHT22;20043;50.998;4.754;2023-02-28T02:54:27;0.70;99.90
33715;DHT22;20043;50.998;4.754;2023-02-28T02:56:59;0.80;99.90
33715;DHT22;20043;50.998;4.754;2023-02-28T02:59:28;0.80;99.90
33715;DHT22;20043;50.998;4.754;2023-02-28T03:02:00;0.70;99.90
33715;DHT22;20043;50.998;4.754;2023-02-28T03:04:34;0.70;99.90
33715;DHT22;20043;50.998;4.754;2023-02-28T03:07:00;0.80;99.90
33715;DHT22;20043;50.998;4.754;2023-02-28T03:09:26;0.80;99.90
33715;DHT22;20043;50.998;4.754;2023-02-28T03:11:54;0.90;99.90
33715;DHT22;20043;50.998;4.754;2023-02-28T03:17:31;1.00;99.90
33715;DHT22;20043;50.998;4.754;2023-02-28T03:20:13;0.90;99.90
33715;DHT22;20043;50.998;4.754;2023-02-28T03:22:56;0.90;99.90
33715;DHT22;20043;50.998;4.754;2023-02-28T03:28:31;0.70;99.90
33715;DHT22;20043;50.998;4.754;2023-02-28T03:31:07;0.70;99.90
33715;DHT22;20043;50.998;4.754;2023-02-28T03:33:39;0.50;99.90
33715;DHT22;20043;50.998;4.754;2023-02-28T03:36:19;0.30;99.90
33715;DHT22;20043;50.998;4.754;2023-02-28T03:38:51;0.30;99.90
33715;DHT22;20043;50.998;4.754;2023-02-28T03:41:24;0.30;99.90
33715;DHT22;20043;50.998;4.754;2023-02-28T03:43:59;0.30;99.90
33715;DHT22;20043;50.998;4.754;2023-02-28T03:46:31;0.30;99.90
33715;DHT22;20043;50.998;4.754;2023-02-28T03:49:08;0.40;99.90
33715;DHT22;20043;50.998;4.754;2023-02-28T03:51:38;0.50;99.90
33715;DHT22;20043;50.998;4.754;2023-02-28T03:54:11;0.40;99.90
33715;DHT22;20043;50.998;4.754;2023-02-28T03:56:47;0.50;99.90
33715;DHT22;20043;50.998;4.754;2023-02-28T03:59:27;0.50;99.90
33715;DHT22;20043;50.998;4.754;2023-02-28T04:01:54;0.60;99.90
33715;DHT22;20043;50.998;4.754;2023-02-28T04:04:20;0.60;99.90
33715;DHT22;20043;50.998;4.754;2023-02-28T04:06:50;0.60;99.90
33715;DHT22;20043;50.998;4.754;2023-02-28T04:09:16;0.70;99.90
33715;DHT22;20043;50.998;4.754;2023-02-28T04:11:45;0.70;99.90
33715;DHT22;20043;50.998;4.754;2023-02-28T04:14:13;0.70;99.90
33715;DHT22;20043;50.998;4.754;2023-02-28T04:16:40;0.70;99.90
33715;DHT22;20043;50.998;4.754;2023-02-28T04:19:08;0.70;99.90
33715;DHT22;20043;50.998;4.754;2023-02-28T04:21:36;0.70;99.90
33715;DHT22;20043;50.998;4.754;2023-02-28T04:24:03;0.70;99.90
33715;DHT22;20043;50.998;4.754;2023-02-28T04:26:34;0.60;99.90
33715;DHT22;20043;50.998;4.754;2023-02-28T04:29:00;0.70;99.90
33715;DHT22;20043;50.998;4.754;2023-02-28T04:31:26;0.70;99.90
33715;DHT22;20043;50.998;4.754;2023-02-28T04:33:52;0.70;99.90
33715;DHT22;20043;50.998;4.754;2023-02-28T04:36:18;0.60;99.90
33715;DHT22;20043;50.998;4.754;2023-02-28T04:38:44;0.40;99.90
33715;DHT22;20043;50.998;4.754;2023-02-28T04:41:11;0.10;99.90
33715;DHT22;20043;50.998;4.754;2023-02-28T04:43:37;0.00;99.90
33715;DHT22;20043;50.998;4.754;2023-02-28T04:46:04;0.10;99.90
33715;DHT22;20043;50.998;4.754;2023-02-28T04:48:32;0.20;99.90
33715;DHT22;20043;50.998;4.754;2023-02-28T04:51:11;0.20;99.90
33715;DHT22;20043;50.998;4.754;2023-02-28T04:53:38;0.40;99.90
33715;DHT22;20043;50.998;4.754;2023-02-28T04:56:05;0.50;99.90
33715;DHT22;20043;50.998;4.754;2023-02-28T04:58:31;0.60;99.90
33715;DHT22;20043;50.998;4.754;2023-02-28T05:01:25;0.50;99.90
33715;DHT22;20043;50.998;4.754;2023-02-28T05:03:52;0.10;99.90
33715;DHT22;20043;50.998;4.754;2023-02-28T05:06:19;0.10;99.90
33715;DHT22;20043;50.998;4.754;2023-02-28T05:08:46;0.10;99.90
33715;DHT22;20043;50.998;4.754;2023-02-28T05:11:32;0.10;99.90
33715;DHT22;20043;50.998;4.754;2023-02-28T05:14:14;0.30;99.90
33715;DHT22;20043;50.998;4.754;2023-02-28T05:16:39;0.50;99.90
33715;DHT22;20043;50.998;4.754;2023-02-28T05:19:05;0.50;99.90
33715;DHT22;20043;50.998;4.754;2023-02-28T05:21:35;0.60;99.90
33715;DHT22;20043;50.998;4.754;2023-02-28T05:24:04;0.60;99.90
33715;DHT22;20043;50.998;4.754;2023-02-28T05:26:31;0.60;99.90
33715;DHT22;20043;50.998;4.754;2023-02-28T05:28:59;0.70;99.90
33715;DHT22;20043;50.998;4.754;2023-02-28T05:31:24;0.90;99.90
33715;DHT22;20043;50.998;4.754;2023-02-28T05:33:50;0.80;99.90
33715;DHT22;20043;50.998;4.754;2023-02-28T05:36:16;0.70;99.90
33715;DHT22;20043;50.998;4.754;2023-02-28T05:38:42;0.60;99.90
33715;DHT22;20043;50.998;4.754;2023-02-28T05:41:09;0.60;99.90
33715;DHT22;20043;50.998;4.754;2023-02-28T05:43:35;0.80;99.90
33715;DHT22;20043;50.998;4.754;2023-02-28T05:46:09;0.90;99.90
33715;DHT22;20043;50.998;4.754;2023-02-28T05:48:35;1.20;99.90
33715;DHT22;20043;50.998;4.754;2023-02-28T05:51:03;1.20;99.90
33715;DHT22;20043;50.998;4.754;2023-02-28T05:53:29;1.00;99.90
33715;DHT22;20043;50.998;4.754;2023-02-28T05:55:55;0.80;99.90
33715;DHT22;20043;50.998;4.754;2023-02-28T05:58:21;0.60;99.90
33715;DHT22;20043;50.998;4.754;2023-02-28T06:00:47;0.50;99.90
33715;DHT22;20043;50.998;4.754;2023-02-28T06:03:13;0.70;99.90
33715;DHT22;20043;50.998;4.754;2023-02-28T06:05:38;0.70;99.90
33715;DHT22;20043;50.998;4.754;2023-02-28T06:08:04;0.80;99.90
33715;DHT22;20043;50.998;4.754;2023-02-28T06:10:33;0.60;99.90
33715;DHT22;20043;50.998;4.754;2023-02-28T06:13:00;0.80;99.90
33715;DHT22;20043;50.998;4.754;2023-02-28T06:15:28;0.90;99.90
33715;DHT22;20043;50.998;4.754;2023-02-28T06:17:55;0.90;99.90
33715;DHT22;20043;50.998;4.754;2023-02-28T06:20:25;1.10;99.90
33715;DHT22;20043;50.998;4.754;2023-02-28T06:22:55;1.20;99.90
33715;DHT22;20043;50.998;4.754;2023-02-28T06:25:21;1.30;99.90
33715;DHT22;20043;50.998;4.754;2023-02-28T06:27:47;1.40;99.90
33715;DHT22;20043;50.998;4.754;2023-02-28T06:30:14;1.40;99.90
33715;DHT22;20043;50.998;4.754;2023-02-28T06:32:40;1.60;99.90
33715;DHT22;20043;50.998;4.754;2023-02-28T06:35:06;1.40;99.90
33715;DHT22;20043;50.998;4.754;2023-02-28T06:37:32;1.50;99.90
33715;DHT22;20043;50.998;4.754;2023-02-28T06:39:58;1.60;99.90
33715;DHT22;20043;50.998;4.754;2023-02-28T06:42:25;1.80;99.90
33715;DHT22;20043;50.998;4.754;2023-02-28T06:44:57;1.80;99.90
33715;DHT22;20043;50.998;4.754;2023-02-28T06:47:23;1.80;99.90
33715;DHT22;20043;50.998;4.754;2023-02-28T06:49:49;1.80;99.90
33715;DHT22;20043;50.998;4.754;2023-02-28T06:52:15;1.90;99.90
33715;DHT22;20043;50.998;4.754;2023-02-28T06:54:41;2.00;99.90
33715;DHT22;20043;50.998;4.754;2023-02-28T06:57:07;2.00;99.90
33715;DHT22;20043;50.998;4.754;2023-02-28T06:59:32;2.10;99.90
33715;DHT22;20043;50.998;4.754;2023-02-28T07:01:58;2.00;99.90
33715;DHT22;20043;50.998;4.754;2023-02-28T07:04:23;1.60;99.90
33715;DHT22;20043;50.998;4.754;2023-02-28T07:06:49;1.70;99.90
33715;DHT22;20043;50.998;4.754;2023-02-28T07:09:15;1.60;99.90
33715;DHT22;20043;50.998;4.754;2023-02-28T07:11:41;1.60;99.90
33715;DHT22;20043;50.998;4.754;2023-02-28T07:14:08;1.80;99.90
33715;DHT22;20043;50.998;4.754;2023-02-28T07:16:34;2.00;99.90
33715;DHT22;20043;50.998;4.754;2023-02-28T07:19:00;2.20;99.90
33715;DHT22;20043;50.998;4.754;2023-02-28T07:21:26;2.20;99.90
33715;DHT22;20043;50.998;4.754;2023-02-28T07:23:51;2.20;99.90
33715;DHT22;20043;50.998;4.754;2023-02-28T07:26:18;2.30;99.90
33715;DHT22;20043;50.998;4.754;2023-02-28T07:28:45;2.50;99.90
33715;DHT22;20043;50.998;4.754;2023-02-28T07:31:13;2.60;99.90
33715;DHT22;20043;50.998;4.754;2023-02-28T07:33:40;2.30;99.90
33715;DHT22;20043;50.998;4.754;2023-02-28T07:36:08;2.50;99.90
33715;DHT22;20043;50.998;4.754;2023-02-28T07:38:35;2.30;99.90
33715;DHT22;20043;50.998;4.754;2023-02-28T07:41:01;2.40;99.90
33715;DHT22;20043;50.998;4.754;2023-02-28T07:43:30;2.30;99.90
33715;DHT22;20043;50.998;4.754;2023-02-28T07:46:00;2.20;99.90
33715;DHT22;20043;50.998;4.754;2023-02-28T07:48:26;2.20;99.90
33715;DHT22;20043;50.998;4.754;2023-02-28T07:50:56;2.10;99.90
33715;DHT22;20043;50.998;4.754;2023-02-28T07:53:22;2.00;99.90
33715;DHT22;20043;50.998;4.754;2023-02-28T07:55:47;2.10;99.90
33715;DHT22;20043;50.998;4.754;2023-02-28T07:58:13;2.10;99.90
33715;DHT22;20043;50.998;4.754;2023-02-28T08:00:39;2.10;99.90
33715;DHT22;20043;50.998;4.754;2023-02-28T08:03:04;1.90;99.90
33715;DHT22;20043;50.998;4.754;2023-02-28T08:05:30;2.00;99.90
33715;DHT22;20043;50.998;4.754;2023-02-28T08:07:56;2.10;99.90
33715;DHT22;20043;50.998;4.754;2023-02-28T08:10:22;2.20;99.90
33715;DHT22;20043;50.998;4.754;2023-02-28T08:12:47;2.30;99.90
33715;DHT22;20043;50.998;4.754;2023-02-28T08:15:13;2.40;99.90
33715;DHT22;20043;50.998;4.754;2023-02-28T08:17:38;2.50;99.90
33715;DHT22;20043;50.998;4.754;2023-02-28T08:20:04;2.60;99.90
33715;DHT22;20043;50.998;4.754;2023-02-28T08:22:30;2.40;99.90
33715;DHT22;20043;50.998;4.754;2023-02-28T08:24:56;2.50;99.90
33715;DHT22;20043;50.998;4.754;2023-02-28T08:27:21;2.60;99.90
33715;DHT22;20043;50.998;4.754;2023-02-28T08:29:47;2.60;99.90
33715;DHT22;20043;50.998;4.754;2023-02-28T08:32:12;2.70;99.90
33715;DHT22;20043;50.998;4.754;2023-02-28T08:34:39;2.60;99.90
33715;DHT22;20043;50.998;4.754;2023-02-28T08:37:05;2.80;99.90
33715;DHT22;20043;50.998;4.754;2023-02-28T08:39:34;2.80;99.90
33715;DHT22;20043;50.998;4.754;2023-02-28T08:42:00;2.80;99.90
33715;DHT22;20043;50.998;4.754;2023-02-28T08:44:25;2.70;99.90
33715;DHT22;20043;50.998;4.754;2023-02-28T08:46:52;2.70;99.90
33715;DHT22;20043;50.998;4.754;2023-02-28T08:49:18;2.90;99.90
33715;DHT22;20043;50.998;4.754;2023-02-28T08:51:44;3.10;99.90
33715;DHT22;20043;50.998;4.754;2023-02-28T08:54:09;3.20;99.90
33715;DHT22;20043;50.998;4.754;2023-02-28T08:56:38;3.20;99.90
33715;DHT22;20043;50.998;4.754;2023-02-28T08:59:03;3.30;99.90
33715;DHT22;20043;50.998;4.754;2023-02-28T09:01:29;3.30;99.90
33715;DHT22;20043;50.998;4.754;2023-02-28T09:03:57;3.30;99.90
33715;DHT22;20043;50.998;4.754;2023-02-28T09:06:24;3.20;99.90
33715;DHT22;20043;50.998;4.754;2023-02-28T09:08:51;3.50;99.90
33715;DHT22;20043;50.998;4.754;2023-02-28T09:11:17;3.60;99.90
33715;DHT22;20043;50.998;4.754;2023-02-28T09:13:45;3.70;99.90
33715;DHT22;20043;50.998;4.754;2023-02-28T09:16:14;3.50;99.90
33715;DHT22;20043;50.998;4.754;2023-02-28T09:18:40;3.60;99.90
33715;DHT22;20043;50.998;4.754;2023-02-28T09:21:07;3.50;99.90
33715;DHT22;20043;50.998;4.754;2023-02-28T09:23:34;3.60;99.90
33715;DHT22;20043;50.998;4.754;2023-02-28T09:25:59;3.40;99.90
33715;DHT22;20043;50.998;4.754;2023-02-28T09:28:25;3.50;99.90
33715;DHT22;20043;50.998;4.754;2023-02-28T09:30:53;3.40;99.90
33715;DHT22;20043;50.998;4.754;2023-02-28T09:33:20;3.60;99.90
33715;DHT22;20043;50.998;4.754;2023-02-28T09:35:50;3.70;99.90
33715;DHT22;20043;50.998;4.754;2023-02-28T09:38:16;3.70;99.90
33715;DHT22;20043;50.998;4.754;2023-02-28T09:40:54;3.70;99.90
33715;DHT22;20043;50.998;4.754;2023-02-28T09:43:25;3.70;99.90
33715;DHT22;20043;50.998;4.754;2023-02-28T09:45:59;3.90;99.90
33715;DHT22;20043;50.998;4.754;2023-02-28T09:48:39;4.10;99.90
33715;DHT22;20043;50.998;4.754;2023-02-28T09:54:15;4.20;99.90
33715;DHT22;20043;50.998;4.754;2023-02-28T09:56:53;4.20;99.90
33715;DHT22;20043;50.998;4.754;2023-02-28T10:02:28;4.30;99.90
33715;DHT22;20043;50.998;4.754;2023-02-28T10:05:13;4.30;99.90
33715;DHT22;20043;50.998;4.754;2023-02-28T10:10:19;4.70;99.90
33715;DHT22;20043;50.998;4.754;2023-02-28T10:12:47;4.70;99.90
33715;DHT22;20043;50.998;4.754;2023-02-28T10:15:15;4.70;99.90
33715;DHT22;20043;50.998;4.754;2023-02-28T10:17:43;4.50;99.90
33715;DHT22;20043;50.998;4.754;2023-02-28T10:20:14;4.60;99.90
33715;DHT22;20043;50.998;4.754;2023-02-28T10:25:29;5.00;99.90
33715;DHT22;20043;50.998;4.754;2023-02-28T10:28:04;5.10;99.90
33715;DHT22;20043;50.998;4.754;2023-02-28T10:30:30;5.10;99.90
33715;DHT22;20043;50.998;4.754;2023-02-28T10:32:56;5.10;99.90
33715;DHT22;20043;50.998;4.754;2023-02-28T10:35:25;5.00;99.90
33715;DHT22;20043;50.998;4.754;2023-02-28T10:37:55;4.90;99.90
33715;DHT22;20043;50.998;4.754;2023-02-28T10:42:59;4.90;99.90
33715;DHT22;20043;50.998;4.754;2023-02-28T10:45:25;5.00;99.90
33715;DHT22;20043;50.998;4.754;2023-02-28T10:48:26;5.10;99.90
33715;DHT22;20043;50.998;4.754;2023-02-28T10:50:53;5.30;99.90
33715;DHT22;20043;50.998;4.754;2023-02-28T11:01:22;5.10;99.90
33715;DHT22;20043;50.998;4.754;2023-02-28T11:03:49;5.20;99.90
33715;DHT22;20043;50.998;4.754;2023-02-28T11:06:32;5.40;99.90
33715;DHT22;20043;50.998;4.754;2023-02-28T11:09:16;5.50;99.90
33715;DHT22;20043;50.998;4.754;2023-02-28T11:11:45;5.40;99.90
33715;DHT22;20043;50.998;4.754;2023-02-28T11:14:27;5.20;99.90
33715;DHT22;20043;50.998;4.754;2023-02-28T11:16:54;5.10;99.90
33715;DHT22;20043;50.998;4.754;2023-02-28T11:19:39;5.20;99.90
33715;DHT22;20043;50.998;4.754;2023-02-28T11:22:05;5.20;99.90
33715;DHT22;20043;50.998;4.754;2023-02-28T11:24:40;5.30;99.90
33715;DHT22;20043;50.998;4.754;2023-02-28T11:29:56;5.90;99.90
33715;DHT22;20043;50.998;4.754;2023-02-28T11:32:23;6.00;98.90
33715;DHT22;20043;50.998;4.754;2023-02-28T11:37:31;5.60;99.10
33715;DHT22;20043;50.998;4.754;2023-02-28T11:39:57;5.50;98.40
33715;DHT22;20043;50.998;4.754;2023-02-28T11:42:37;5.50;98.40
33715;DHT22;20043;50.998;4.754;2023-02-28T11:45:15;5.70;99.70
33715;DHT22;20043;50.998;4.754;2023-02-28T11:50:42;6.20;99.10
33715;DHT22;20043;50.998;4.754;2023-02-28T11:53:21;6.20;96.50
33715;DHT22;20043;50.998;4.754;2023-02-28T11:56:16;5.80;96.80
33715;DHT22;20043;50.998;4.754;2023-02-28T12:02:16;5.80;96.60
33715;DHT22;20043;50.998;4.754;2023-02-28T12:05:12;5.80;96.90
33715;DHT22;20043;50.998;4.754;2023-02-28T12:13:48;6.00;96.40
33715;DHT22;20043;50.998;4.754;2023-02-28T12:16:29;6.00;96.60
33715;DHT22;20043;50.998;4.754;2023-02-28T12:21:45;6.20;94.50
33715;DHT22;20043;50.998;4.754;2023-02-28T12:26:53;6.10;95.20
33715;DHT22;20043;50.998;4.754;2023-02-28T12:32:13;5.80;94.20
33715;DHT22;20043;50.998;4.754;2023-02-28T12:34:55;5.90;95.30
33715;DHT22;20043;50.998;4.754;2023-02-28T12:37:36;5.90;95.10
33715;DHT22;20043;50.998;4.754;2023-02-28T12:40:14;5.90;95.50
33715;DHT22;20043;50.998;4.754;2023-02-28T12:42:59;6.30;96.00
33715;DHT22;20043;50.998;4.754;2023-02-28T12:45:54;6.60;95.10
33715;DHT22;20043;50.998;4.754;2023-02-28T12:48:43;6.50;93.70
33715;DHT22;20043;50.998;4.754;2023-02-28T12:51:12;6.20;93.60
33715;DHT22;20043;50.998;4.754;2023-02-28T12:56:24;6.30;95.40
33715;DHT22;20043;50.998;4.754;2023-02-28T12:59:07;6.50;96.90
33715;DHT22;20043;50.998;4.754;2023-02-28T13:01:42;6.60;94.90
33715;DHT22;20043;50.998;4.754;2023-02-28T13:07:23;6.40;95.00
33715;DHT22;20043;50.998;4.754;2023-02-28T13:09:57;6.50;95.40
33715;DHT22;20043;50.998;4.754;2023-02-28T13:12:24;6.60;94.40
33715;DHT22;20043;50.998;4.754;2023-02-28T13:14:50;6.60;94.70
33715;DHT22;20043;50.998;4.754;2023-02-28T13:17:25;6.70;95.10
33715;DHT22;20043;50.998;4.754;2023-02-28T13:24:55;6.50;94.00
33715;DHT22;20043;50.998;4.754;2023-02-28T13:27:37;6.50;93.40
33715;DHT22;20043;50.998;4.754;2023-02-28T13:33:27;6.30;93.60
33715;DHT22;20043;50.998;4.754;2023-02-28T13:38:43;6.60;93.90
33715;DHT22;20043;50.998;4.754;2023-02-28T13:44:08;6.50;94.00
33715;DHT22;20043;50.998;4.754;2023-02-28T13:49:27;6.40;94.70
33715;DHT22;20043;50.998;4.754;2023-02-28T14:00:28;6.40;94.80
33715;DHT22;20043;50.998;4.754;2023-02-28T14:05:47;6.30;94.40
33715;DHT22;20043;50.998;4.754;2023-02-28T14:08:15;6.30;96.00
33715;DHT22;20043;50.998;4.754;2023-02-28T14:10:47;6.40;95.70
33715;DHT22;20043;50.998;4.754;2023-02-28T14:15:58;6.50;95.70
33715;DHT22;20043;50.998;4.754;2023-02-28T14:18:36;6.60;95.00
33715;DHT22;20043;50.998;4.754;2023-02-28T14:21:11;6.60;95.60
33715;DHT22;20043;50.998;4.754;2023-02-28T14:32:43;6.30;96.70
33715;DHT22;20043;50.998;4.754;2023-02-28T14:37:42;6.50;97.00
33715;DHT22;20043;50.998;4.754;2023-02-28T14:40:32;6.50;96.90
33715;DHT22;20043;50.998;4.754;2023-02-28T14:43:00;6.60;96.40
33715;DHT22;20043;50.998;4.754;2023-02-28T14:45:29;6.70;94.90
33715;DHT22;20043;50.998;4.754;2023-02-28T14:47:57;6.70;96.90
33715;DHT22;20043;50.998;4.754;2023-02-28T14:50:29;6.90;95.80
33715;DHT22;20043;50.998;4.754;2023-02-28T14:52:56;6.80;95.40
33715;DHT22;20043;50.998;4.754;2023-02-28T14:55:30;6.70;95.30
33715;DHT22;20043;50.998;4.754;2023-02-28T14:58:05;6.60;95.50
33715;DHT22;20043;50.998;4.754;2023-02-28T15:00:36;6.60;95.50
33715;DHT22;20043;50.998;4.754;2023-02-28T15:03:28;6.40;95.30
33715;DHT22;20043;50.998;4.754;2023-02-28T15:05:57;6.40;95.20
33715;DHT22;20043;50.998;4.754;2023-02-28T15:08:24;6.30;95.80
33715;DHT22;20043;50.998;4.754;2023-02-28T15:11:17;6.40;95.40
33715;DHT22;20043;50.998;4.754;2023-02-28T15:13:51;6.40;95.20
33715;DHT22;20043;50.998;4.754;2023-02-28T15:16:39;6.50;95.50
33715;DHT22;20043;50.998;4.754;2023-02-28T15:19:22;6.30;95.60
33715;DHT22;20043;50.998;4.754;2023-02-28T15:21:52;6.20;95.40
33715;DHT22;20043;50.998;4.754;2023-02-28T15:24:31;6.10;96.70
33715;DHT22;20043;50.998;4.754;2023-02-28T15:27:04;6.00;96.80
33715;DHT22;20043;50.998;4.754;2023-02-28T15:29:34;6.10;97.10
33715;DHT22;20043;50.998;4.754;2023-02-28T15:32:06;6.20;97.10
33715;DHT22;20043;50.998;4.754;2023-02-28T15:34:38;6.20;96.80
33715;DHT22;20043;50.998;4.754;2023-02-28T15:37:27;6.30;96.50
33715;DHT22;20043;50.998;4.754;2023-02-28T15:39:55;6.30;96.50
33715;DHT22;20043;50.998;4.754;2023-02-28T15:42:23;6.30;96.70
33715;DHT22;20043;50.998;4.754;2023-02-28T15:44:52;6.40;97.00
33715;DHT22;20043;50.998;4.754;2023-02-28T15:47:24;6.50;96.50
33715;DHT22;20043;50.998;4.754;2023-02-28T15:50:01;6.30;97.20
33715;DHT22;20043;50.998;4.754;2023-02-28T15:52:43;6.40;96.70
33715;DHT22;20043;50.998;4.754;2023-02-28T15:55:28;6.40;96.70
33715;DHT22;20043;50.998;4.754;2023-02-28T15:57:57;6.20;96.80
33715;DHT22;20043;50.998;4.754;2023-02-28T16:00:27;6.10;97.10
33715;DHT22;20043;50.998;4.754;2023-02-28T16:02:53;6.10;97.90
33715;DHT22;20043;50.998;4.754;2023-02-28T16:05:29;6.20;97.60
33715;DHT22;20043;50.998;4.754;2023-02-28T16:08:15;6.10;97.60
33715;DHT22;20043;50.998;4.754;2023-02-28T16:10:41;6.20;97.70
33715;DHT22;20043;50.998;4.754;2023-02-28T16:13:08;6.20;98.10
33715;DHT22;20043;50.998;4.754;2023-02-28T16:15:39;6.20;98.30
33715;DHT22;20043;50.998;4.754;2023-02-28T16:18:10;6.00;98.00
33715;DHT22;20043;50.998;4.754;2023-02-28T16:20:36;6.00;98.20
33715;DHT22;20043;50.998;4.754;2023-02-28T16:23:02;6.00;98.80
33715;DHT22;20043;50.998;4.754;2023-02-28T16:25:42;6.00;98.60
33715;DHT22;20043;50.998;4.754;2023-02-28T16:28:30;6.00;98.90
33715;DHT22;20043;50.998;4.754;2023-02-28T16:30:59;6.00;98.60
33715;DHT22;20043;50.998;4.754;2023-02-28T16:33:25;5.90;98.20
33715;DHT22;20043;50.998;4.754;2023-02-28T16:35:50;5.60;98.70
33715;DHT22;20043;50.998;4.754;2023-02-28T16:38:16;5.60;99.10
33715;DHT22;20043;50.998;4.754;2023-02-28T16:40:41;5.70;98.90
33715;DHT22;20043;50.998;4.754;2023-02-28T16:43:18;5.60;98.80
33715;DHT22;20043;50.998;4.754;2023-02-28T16:45:46;5.50;99.20
33715;DHT22;20043;50.998;4.754;2023-02-28T16:48:15;5.60;99.10
33715;DHT22;20043;50.998;4.754;2023-02-28T16:50:42;5.60;99.40
33715;DHT22;20043;50.998;4.754;2023-02-28T16:53:08;5.50;99.40
33715;DHT22;20043;50.998;4.754;2023-02-28T16:55:35;5.70;99.60
33715;DHT22;20043;50.998;4.754;2023-02-28T16:58:01;5.80;99.40
33715;DHT22;20043;50.998;4.754;2023-02-28T17:00:30;5.70;99.20
33715;DHT22;20043;50.998;4.754;2023-02-28T17:02:56;5.70;99.90
33715;DHT22;20043;50.998;4.754;2023-02-28T17:05:22;5.60;99.80
33715;DHT22;20043;50.998;4.754;2023-02-28T17:07:49;5.60;99.90
33715;DHT22;20043;50.998;4.754;2023-02-28T17:10:19;5.70;99.70
33715;DHT22;20043;50.998;4.754;2023-02-28T17:12:45;5.80;99.80
33715;DHT22;20043;50.998;4.754;2023-02-28T17:15:12;5.90;99.50
33715;DHT22;20043;50.998;4.754;2023-02-28T17:17:38;6.00;99.60
33715;DHT22;20043;50.998;4.754;2023-02-28T17:20:05;5.90;99.50
33715;DHT22;20043;50.998;4.754;2023-02-28T17:22:31;5.90;99.70
33715;DHT22;20043;50.998;4.754;2023-02-28T17:24:57;5.80;99.90
33715;DHT22;20043;50.998;4.754;2023-02-28T17:27:24;5.80;99.90
33715;DHT22;20043;50.998;4.754;2023-02-28T17:29:50;5.80;99.90
33715;DHT22;20043;50.998;4.754;2023-02-28T17:32:16;5.80;99.90
33715;DHT22;20043;50.998;4.754;2023-02-28T17:34:43;5.80;99.90
33715;DHT22;20043;50.998;4.754;2023-02-28T17:37:09;5.80;99.90
33715;DHT22;20043;50.998;4.754;2023-02-28T17:39:35;5.80;99.80
33715;DHT22;20043;50.998;4.754;2023-02-28T17:42:01;5.80;99.90
33715;DHT22;20043;50.998;4.754;2023-02-28T17:44:27;5.60;99.90
33715;DHT22;20043;50.998;4.754;2023-02-28T17:46:54;5.50;99.90
33715;DHT22;20043;50.998;4.754;2023-02-28T17:49:20;5.40;99.90
33715;DHT22;20043;50.998;4.754;2023-02-28T17:51:46;5.30;99.90
33715;DHT22;20043;50.998;4.754;2023-02-28T17:54:12;5.20;99.90
33715;DHT22;20043;50.998;4.754;2023-02-28T17:56:40;5.20;99.90
33715;DHT22;20043;50.998;4.754;2023-02-28T17:59:05;5.10;99.90
33715;DHT22;20043;50.998;4.754;2023-02-28T18:01:31;5.20;99.90
33715;DHT22;20043;50.998;4.754;2023-02-28T18:03:57;5.10;99.90
33715;DHT22;20043;50.998;4.754;2023-02-28T18:06:25;5.20;99.90
33715;DHT22;20043;50.998;4.754;2023-02-28T18:08:53;5.10;99.90